Time;durP1;ratioP1;P1;durP2;ratioP2;P2;SDS_P1;SDS_P2;PMS_P1;PMS_P2;Temp;Humidity;BMP_temperature;BMP_pressure;BME280_temperature;BME280_humidity;BME280_pressure;Samples;Min_cycle;Max_cycle;Signal;HPM_P1;HPM_P2
2021/09/04 00:02:04;;;;;;;49.30;42.23;;;;;;;;;;5055747;28;20435;-86
2021/09/04 00:04:33;;;;;;;49.27;43.50;;;;;;;;;;5055611;28;20406;-86
2021/09/04 00:07:00;;;;;;;46.30;41.50;;;;;;;;;;5055562;28;20416;-86
2021/09/04 00:09:28;;;;;;;48.33;42.80;;;;;;;;;;5055643;28;20439;-86
2021/09/04 00:11:55;;;;;;;46.60;41.60;;;;;;;;;;5055519;28;20841;-86
2021/09/04 00:14:22;;;;;;;45.10;40.20;;;;;;;;;;5055093;28;20502;-86
2021/09/04 00:16:50;;;;;;;48.70;39.73;;;;;;;;;;5055417;28;20439;-86
2021/09/04 00:19:17;;;;;;;50.97;41.63;;;;;;;;;;5055150;28;20419;-86
2021/09/04 00:21:46;;;;;;;47.77;41.63;;;;;;;;;;5055231;28;20439;-86
2021/09/04 00:24:13;;;;;;;45.70;40.63;;;;;;;;;;5055150;28;20439;-86
2021/09/04 00:26:41;;;;;;;51.70;42.37;;;;;;;;;;5055376;28;20782;-86
2021/09/04 00:29:08;;;;;;;46.50;39.00;;;;;;;;;;5053941;28;20440;-86
2021/09/04 00:31:36;;;;;;;46.00;40.30;;;;;;;;;;5054784;28;20439;-86
2021/09/04 00:34:03;;;;;;;43.87;39.00;;;;;;;;;;5054321;28;20461;-86
2021/09/04 00:36:30;;;;;;;48.13;41.47;;;;;;;;;;5054128;28;20419;-86
2021/09/04 00:38:59;;;;;;;44.33;38.07;;;;;;;;;;5055052;28;20936;-86
2021/09/04 00:41:26;;;;;;;43.23;38.57;;;;;;;;;;5054673;28;20428;-87
2021/09/04 00:43:54;;;;;;;48.47;41.37;;;;;;;;;;5054633;28;20461;-86
2021/09/04 00:46:21;;;;;;;46.27;41.23;;;;;;;;;;5055031;28;20429;-86
2021/09/04 00:48:49;;;;;;;45.33;40.70;;;;;;;;;;5054608;28;20409;-86
2021/09/04 00:51:16;;;;;;;53.30;42.40;;;;;;;;;;5054602;28;20448;-86
2021/09/04 00:53:44;;;;;;;44.10;39.47;;;;;;;;;;5054307;28;20928;-86
2021/09/04 00:56:14;;;;;;;47.40;40.47;;;;;;;;;;5054718;28;20445;-86
2021/09/04 00:58:42;;;;;;;47.63;39.80;;;;;;;;;;5054822;28;20812;-86
2021/09/04 01:01:09;;;;;;;48.73;41.57;;;;;;;;;;5054562;28;20439;-86
2021/09/04 01:03:36;;;;;;;47.60;42.17;;;;;;;;;;5054545;28;20421;-86
2021/09/04 01:06:04;;;;;;;46.07;41.30;;;;;;;;;;5054499;28;20410;-86
2021/09/04 01:08:31;;;;;;;54.37;42.23;;;;;;;;;;5052666;28;20884;-86
2021/09/04 01:10:59;;;;;;;48.90;38.47;;;;;;;;;;5054137;28;20445;-86
2021/09/04 01:13:28;;;;;;;58.73;42.90;;;;;;;;;;5054192;28;20458;-86
2021/09/04 01:15:55;;;;;;;50.83;41.20;;;;;;;;;;5053992;28;20479;-86
2021/09/04 01:18:24;;;;;;;51.70;39.97;;;;;;;;;;5053105;28;20440;-86
2021/09/04 01:20:51;;;;;;;48.57;40.00;;;;;;;;;;5054783;28;20410;-85
2021/09/04 01:23:19;;;;;;;43.83;38.77;;;;;;;;;;5055112;28;20434;-86
2021/09/04 01:25:50;;;;;;;44.90;40.10;;;;;;;;;;5053889;28;20436;-86
2021/09/04 01:28:19;;;;;;;49.43;40.23;;;;;;;;;;5054214;28;20446;-86
2021/09/04 01:30:47;;;;;;;45.93;39.37;;;;;;;;;;5053969;28;20441;-85
2021/09/04 01:33:15;;;;;;;43.27;37.70;;;;;;;;;;5053674;28;20457;-86
2021/09/04 01:35:42;;;;;;;43.30;36.10;;;;;;;;;;5053878;28;20457;-86
2021/09/04 01:38:10;;;;;;;45.70;39.80;;;;;;;;;;5053922;28;20417;-86
2021/09/04 01:40:37;;;;;;;48.10;39.20;;;;;;;;;;5054068;28;20439;-86
2021/09/04 01:43:05;;;;;;;45.50;37.07;;;;;;;;;;5053967;28;20439;-86
2021/09/04 01:45:34;;;;;;;43.17;38.53;;;;;;;;;;5052674;28;20443;-86
2021/09/04 01:48:01;;;;;;;46.60;38.00;;;;;;;;;;5053995;28;20407;-86
2021/09/04 01:50:29;;;;;;;42.40;37.80;;;;;;;;;;5054092;28;20822;-86
2021/09/04 01:52:56;;;;;;;49.93;42.10;;;;;;;;;;5053842;28;20416;-86
2021/09/04 01:55:23;;;;;;;46.67;39.13;;;;;;;;;;5052674;28;20486;-86
2021/09/04 01:57:51;;;;;;;45.80;39.93;;;;;;;;;;5054094;28;20971;-86
2021/09/04 02:00:19;;;;;;;45.27;37.70;;;;;;;;;;5053643;28;20421;-86
2021/09/04 02:02:49;;;;;;;45.27;39.03;;;;;;;;;;5053696;28;20437;-86
2021/09/04 02:05:16;;;;;;;49.33;38.13;;;;;;;;;;5053803;28;20409;-85
2021/09/04 02:07:45;;;;;;;45.07;38.10;;;;;;;;;;5053580;28;20425;-86
2021/09/04 02:10:12;;;;;;;39.87;35.60;;;;;;;;;;5053928;28;20413;-86
2021/09/04 02:12:40;;;;;;;41.97;37.40;;;;;;;;;;5053743;28;20453;-86
2021/09/04 02:15:08;;;;;;;47.33;38.50;;;;;;;;;;5052318;28;20988;-86
2021/09/04 02:17:36;;;;;;;50.57;39.80;;;;;;;;;;5053997;28;20413;-86
2021/09/04 02:20:05;;;;;;;44.70;38.30;;;;;;;;;;5054184;28;20430;-86
2021/09/04 02:22:32;;;;;;;43.77;39.07;;;;;;;;;;5057040;28;20471;-86
2021/09/04 02:25:02;;;;;;;46.23;39.97;;;;;;;;;;5057425;28;20449;-86
2021/09/04 02:27:29;;;;;;;47.17;38.70;;;;;;;;;;5056264;28;20450;-86
2021/09/04 02:29:56;;;;;;;52.87;40.10;;;;;;;;;;5057187;28;20438;-86
2021/09/04 02:32:24;;;;;;;44.47;38.90;;;;;;;;;;5057135;28;20442;-86
2021/09/04 02:34:51;;;;;;;44.60;38.07;;;;;;;;;;5056773;28;20502;-86
2021/09/04 02:37:20;;;;;;;44.90;38.30;;;;;;;;;;5057032;28;20444;-86
2021/09/04 02:39:49;;;;;;;50.20;40.10;;;;;;;;;;5057063;28;20424;-86
2021/09/04 02:42:17;;;;;;;50.63;39.70;;;;;;;;;;5056946;28;20414;-86
2021/09/04 02:44:44;;;;;;;52.40;40.27;;;;;;;;;;5057041;28;20780;-85
2021/09/04 02:47:11;;;;;;;51.80;42.00;;;;;;;;;;5055792;28;20489;-86
2021/09/04 02:49:39;;;;;;;48.17;40.37;;;;;;;;;;5057025;28;20421;-86
2021/09/04 02:52:06;;;;;;;46.87;38.80;;;;;;;;;;5057103;28;20450;-86
2021/09/04 02:54:35;;;;;;;48.83;39.73;;;;;;;;;;5056467;28;20455;-86
2021/09/04 02:57:03;;;;;;;54.43;39.03;;;;;;;;;;5056964;28;20417;-85
2021/09/04 02:59:30;;;;;;;52.03;41.40;;;;;;;;;;5057004;28;20434;-86
2021/09/04 03:01:58;;;;;;;45.90;39.40;;;;;;;;;;5056916;28;20434;-86
2021/09/04 03:04:25;;;;;;;47.97;40.27;;;;;;;;;;5056758;28;20441;-86
2021/09/04 03:06:53;;;;;;;48.87;39.93;;;;;;;;;;5056722;28;20478;-86
2021/09/04 03:09:20;;;;;;;48.73;38.47;;;;;;;;;;5056672;28;20410;-86
2021/09/04 03:11:49;;;;;;;54.27;40.50;;;;;;;;;;5055164;28;20463;-86
2021/09/04 03:14:16;;;;;;;48.00;38.93;;;;;;;;;;5056601;28;20435;-85
2021/09/04 03:16:44;;;;;;;46.57;39.50;;;;;;;;;;5056338;28;20490;-86
2021/09/04 03:19:11;;;;;;;50.67;39.70;;;;;;;;;;5056329;28;20481;-86
2021/09/04 03:21:38;;;;;;;49.00;39.57;;;;;;;;;;5056550;28;20772;-85
2021/09/04 03:24:06;;;;;;;43.70;38.87;;;;;;;;;;5055979;28;20439;-86
2021/09/04 03:26:33;;;;;;;49.47;39.73;;;;;;;;;;5056113;28;20439;-86
2021/09/04 03:29:02;;;;;;;50.67;39.67;;;;;;;;;;5056173;28;20443;-86
2021/09/04 03:31:29;;;;;;;46.47;37.43;;;;;;;;;;5055779;28;20447;-86
2021/09/04 03:33:56;;;;;;;49.50;40.90;;;;;;;;;;5055860;28;20457;-86
2021/09/04 03:36:24;;;;;;;55.20;39.63;;;;;;;;;;5055656;28;20462;-86
2021/09/04 03:38:51;;;;;;;61.20;40.07;;;;;;;;;;5056152;28;20442;-86
2021/09/04 03:41:18;;;;;;;48.93;38.53;;;;;;;;;;5055769;28;20445;-86
2021/09/04 03:43:46;;;;;;;45.60;39.70;;;;;;;;;;5055896;28;20439;-86
2021/09/04 03:46:15;;;;;;;45.87;39.13;;;;;;;;;;5055704;28;20922;-85
2021/09/04 03:48:42;;;;;;;48.90;40.30;;;;;;;;;;5056570;28;20466;-85
2021/09/04 03:51:09;;;;;;;54.30;40.83;;;;;;;;;;5055490;28;20413;-85
2021/09/04 03:53:37;;;;;;;52.00;39.20;;;;;;;;;;5055323;28;20454;-85
2021/09/04 03:56:05;;;;;;;48.47;39.17;;;;;;;;;;5055481;28;20496;-85
2021/09/04 03:58:32;;;;;;;45.30;37.53;;;;;;;;;;5055648;28;20437;-85
2021/09/04 04:01:00;;;;;;;44.30;39.23;;;;;;;;;;5055709;28;20430;-85
2021/09/04 04:03:28;;;;;;;51.60;38.63;;;;;;;;;;5055211;28;20526;-85
2021/09/04 04:05:56;;;;;;;48.10;37.83;;;;;;;;;;5055464;28;20414;-85
2021/09/04 04:08:23;;;;;;;52.73;39.37;;;;;;;;;;5055616;28;20461;-85
2021/09/04 04:10:51;;;;;;;47.00;39.77;;;;;;;;;;5055031;28;20439;-85
2021/09/04 04:13:18;;;;;;;52.53;38.57;;;;;;;;;;5055635;28;20769;-85
2021/09/04 04:15:45;;;;;;;43.27;36.37;;;;;;;;;;5054731;28;20482;-85
2021/09/04 04:18:13;;;;;;;42.47;37.33;;;;;;;;;;5055069;28;20932;-85
2021/09/04 04:20:41;;;;;;;43.20;36.80;;;;;;;;;;5055128;28;20450;-85
2021/09/04 04:23:09;;;;;;;43.90;35.63;;;;;;;;;;5054925;28;20417;-84
2021/09/04 04:25:36;;;;;;;48.10;34.67;;;;;;;;;;5055758;28;20451;-85
2021/09/04 04:28:03;;;;;;;40.10;35.83;;;;;;;;;;5054988;28;20457;-85
2021/09/04 04:30:31;;;;;;;42.00;36.70;;;;;;;;;;5054824;28;20406;-84
2021/09/04 04:32:58;;;;;;;40.70;33.80;;;;;;;;;;5054710;28;20486;-85
2021/09/04 04:35:25;;;;;;;38.80;34.60;;;;;;;;;;5054800;28;20486;-85
2021/09/04 04:37:54;;;;;;;37.37;33.37;;;;;;;;;;5054776;28;20413;-85
2021/09/04 04:40:22;;;;;;;37.07;33.17;;;;;;;;;;5054524;28;20446;-85
2021/09/04 04:42:49;;;;;;;36.80;32.80;;;;;;;;;;5054404;28;20416;-85
2021/09/04 04:45:16;;;;;;;39.30;34.73;;;;;;;;;;5054161;28;20417;-85
2021/09/04 04:47:44;;;;;;;39.43;34.30;;;;;;;;;;5054274;28;20440;-85
2021/09/04 04:50:12;;;;;;;37.87;32.00;;;;;;;;;;5054366;28;20436;-85
2021/09/04 04:52:39;;;;;;;36.70;33.07;;;;;;;;;;5054345;28;20953;-85
2021/09/04 04:55:08;;;;;;;36.77;32.40;;;;;;;;;;5054335;28;20457;-85
2021/09/04 04:57:36;;;;;;;38.07;33.97;;;;;;;;;;5054117;28;20435;-85
2021/09/04 05:00:04;;;;;;;39.37;32.97;;;;;;;;;;5054556;28;20461;-85
2021/09/04 05:02:31;;;;;;;36.63;32.70;;;;;;;;;;5054450;28;20438;-85
2021/09/04 05:04:59;;;;;;;36.07;32.50;;;;;;;;;;5054370;28;20448;-85
2021/09/04 05:07:26;;;;;;;36.67;32.67;;;;;;;;;;5054094;28;20912;-85
2021/09/04 05:09:53;;;;;;;35.10;30.83;;;;;;;;;;5053998;28;20901;-85
2021/09/04 05:12:22;;;;;;;36.70;32.70;;;;;;;;;;5054631;28;20798;-85
2021/09/04 05:14:50;;;;;;;38.77;32.80;;;;;;;;;;5053676;28;20409;-85
2021/09/04 05:17:17;;;;;;;41.80;33.00;;;;;;;;;;5054258;28;20781;-84
2021/09/04 05:19:44;;;;;;;37.77;32.00;;;;;;;;;;5054353;28;20789;-85
2021/09/04 05:22:12;;;;;;;37.93;30.60;;;;;;;;;;5054084;28;20426;-85
2021/09/04 05:24:39;;;;;;;38.80;31.87;;;;;;;;;;5053722;28;20430;-81
2021/09/04 05:27:06;;;;;;;34.93;31.33;;;;;;;;;;5053742;28;20420;-81
2021/09/04 05:29:35;;;;;;;37.13;32.83;;;;;;;;;;5053713;28;20421;-81
2021/09/04 05:32:03;;;;;;;41.43;32.70;;;;;;;;;;5053901;28;20414;-85
2021/09/04 05:34:30;;;;;;;36.27;31.63;;;;;;;;;;5053644;28;20453;-85
2021/09/04 05:36:59;;;;;;;35.80;31.90;;;;;;;;;;5054025;28;20485;-82
2021/09/04 05:39:27;;;;;;;34.80;30.23;;;;;;;;;;5053661;28;20446;-81
2021/09/04 05:41:54;;;;;;;36.93;33.00;;;;;;;;;;5053540;28;20446;-80
2021/09/04 05:44:21;;;;;;;34.13;30.53;;;;;;;;;;5053205;28;20426;-85
2021/09/04 05:46:50;;;;;;;36.77;31.13;;;;;;;;;;5053719;28;20429;-85
2021/09/04 05:49:18;;;;;;;34.20;30.80;;;;;;;;;;5053744;28;20436;-85
2021/09/04 05:51:45;;;;;;;36.03;32.20;;;;;;;;;;5053685;28;20530;-81
2021/09/04 05:54:13;;;;;;;35.43;31.93;;;;;;;;;;5053135;28;20493;-81
2021/09/04 05:56:40;;;;;;;33.70;30.17;;;;;;;;;;5057036;28;20461;-81
2021/09/04 05:59:08;;;;;;;32.43;29.20;;;;;;;;;;5057612;28;20421;-81
2021/09/04 06:01:35;;;;;;;31.37;28.33;;;;;;;;;;5056276;28;20435;-81
2021/09/04 06:04:04;;;;;;;33.60;30.40;;;;;;;;;;5057201;28;20436;-81
2021/09/04 06:06:31;;;;;;;33.50;30.30;;;;;;;;;;5057064;28;20450;-80
2021/09/04 06:09:02;;;;;;;32.47;29.40;;;;;;;;;;5057381;28;20936;-81
2021/09/04 06:11:29;;;;;;;33.37;29.80;;;;;;;;;;5056906;28;20413;-81
2021/09/04 06:13:57;;;;;;;34.47;31.27;;;;;;;;;;5056785;28;20440;-81
2021/09/04 06:16:24;;;;;;;33.20;30.07;;;;;;;;;;5056782;28;20977;-80
2021/09/04 06:18:51;;;;;;;33.43;30.33;;;;;;;;;;5055979;28;20445;-81
2021/09/04 06:21:20;;;;;;;34.93;31.73;;;;;;;;;;5057103;28;20453;-81
2021/09/04 06:23:47;;;;;;;33.20;29.97;;;;;;;;;;5057045;28;20429;-80
2021/09/04 06:26:15;;;;;;;35.00;31.60;;;;;;;;;;5056783;28;20439;-80
2021/09/04 06:28:42;;;;;;;34.23;31.00;;;;;;;;;;5056960;28;20413;-81
2021/09/04 06:31:09;;;;;;;32.67;29.60;;;;;;;;;;5056712;28;20409;-81
2021/09/04 06:33:37;;;;;;;34.03;30.27;;;;;;;;;;5056585;28;20460;-81
2021/09/04 06:36:04;;;;;;;34.77;31.13;;;;;;;;;;5056767;28;20485;-80
2021/09/04 06:38:33;;;;;;;36.63;32.60;;;;;;;;;;5056605;28;20435;-80
2021/09/04 06:41:00;;;;;;;33.00;29.77;;;;;;;;;;5056343;28;20766;-80
2021/09/04 06:43:28;;;;;;;33.13;29.90;;;;;;;;;;5056265;28;20439;-80
2021/09/04 06:45:55;;;;;;;33.77;30.47;;;;;;;;;;5056661;28;20410;-80
2021/09/04 06:48:22;;;;;;;34.97;31.27;;;;;;;;;;5056559;28;20417;-80
2021/09/04 06:50:49;;;;;;;33.97;30.70;;;;;;;;;;5056586;28;20443;-81
2021/09/04 06:53:17;;;;;;;34.47;30.97;;;;;;;;;;5056151;28;20424;-81
2021/09/04 06:55:46;;;;;;;38.70;30.40;;;;;;;;;;5056276;28;20827;-82
2021/09/04 06:58:13;;;;;;;34.43;30.77;;;;;;;;;;5056544;28;20473;-81
2021/09/04 07:00:40;;;;;;;34.37;31.23;;;;;;;;;;5056251;28;20438;-81
2021/09/04 07:03:08;;;;;;;34.93;30.93;;;;;;;;;;5055993;28;20453;-81
2021/09/04 07:05:35;;;;;;;32.20;29.10;;;;;;;;;;5056223;28;20418;-81
2021/09/04 07:08:02;;;;;;;32.10;29.00;;;;;;;;;;5055223;28;20451;-81
2021/09/04 07:10:30;;;;;;;33.20;29.90;;;;;;;;;;5055987;28;20463;-81
2021/09/04 07:12:58;;;;;;;33.67;30.57;;;;;;;;;;5056028;28;20405;-81
2021/09/04 07:15:26;;;;;;;33.27;29.83;;;;;;;;;;5055923;28;20406;-81
2021/09/04 07:17:53;;;;;;;34.20;30.93;;;;;;;;;;5055703;28;20448;-80
2021/09/04 07:20:20;;;;;;;36.03;32.53;;;;;;;;;;5055760;28;20423;-80
2021/09/04 07:22:48;;;;;;;34.07;30.47;;;;;;;;;;5055685;28;20443;-81
2021/09/04 07:25:16;;;;;;;34.63;31.13;;;;;;;;;;5055689;28;20418;-81
2021/09/04 07:27:44;;;;;;;33.30;29.77;;;;;;;;;;5055565;28;20479;-81
2021/09/04 07:30:13;;;;;;;31.93;29.00;;;;;;;;;;5055821;28;20446;-80
2021/09/04 07:32:40;;;;;;;33.97;30.50;;;;;;;;;;5055946;28;20431;-93
2021/09/04 07:35:09;;;;;;;33.63;30.30;;;;;;;;;;5055760;28;20905;-87
2021/09/04 07:37:36;;;;;;;32.23;29.43;;;;;;;;;;5055434;28;20525;-79
2021/09/04 07:40:04;;;;;;;32.37;29.47;;;;;;;;;;5055654;28;20441;-79
2021/09/04 07:42:31;;;;;;;37.27;30.13;;;;;;;;;;5055264;28;20431;-79
2021/09/04 07:44:59;;;;;;;32.93;30.07;;;;;;;;;;5055090;28;20508;-79
2021/09/04 07:47:27;;;;;;;31.03;28.23;;;;;;;;;;5055272;28;20394;-79
2021/09/04 07:49:55;;;;;;;30.80;27.97;;;;;;;;;;5055422;28;20427;-78
2021/09/04 07:52:22;;;;;;;31.20;28.40;;;;;;;;;;5055097;28;20418;-79
2021/09/04 07:54:49;;;;;;;30.73;27.83;;;;;;;;;;5054903;28;20978;-83
2021/09/04 07:57:17;;;;;;;32.00;29.20;;;;;;;;;;5055388;28;20486;-80
2021/09/04 07:59:44;;;;;;;29.77;27.37;;;;;;;;;;5054914;28;20895;-79
2021/09/04 08:02:11;;;;;;;28.93;26.30;;;;;;;;;;5054887;28;20431;-79
2021/09/04 08:04:40;;;;;;;28.07;25.53;;;;;;;;;;5055196;28;20439;-86
2021/09/04 08:07:08;;;;;;;29.87;27.30;;;;;;;;;;5055236;28;20435;-94
2021/09/04 08:09:35;;;;;;;28.80;26.33;;;;;;;;;;5055485;28;20437;-80
2021/09/04 08:12:02;;;;;;;28.30;26.03;;;;;;;;;;5054768;28;20409;-79
2021/09/04 08:14:30;;;;;;;29.97;27.27;;;;;;;;;;5054666;28;20416;-81
2021/09/04 08:16:57;;;;;;;30.73;27.93;;;;;;;;;;5054603;28;20489;-81
2021/09/04 08:19:24;;;;;;;28.07;25.77;;;;;;;;;;5053905;28;20417;-80
2021/09/04 08:21:53;;;;;;;29.00;26.20;;;;;;;;;;5054458;28;20429;-80
2021/09/04 08:24:20;;;;;;;28.40;26.00;;;;;;;;;;5054523;28;20429;-79
2021/09/04 08:26:48;;;;;;;28.83;26.20;;;;;;;;;;5054423;28;20440;-79
2021/09/04 08:29:15;;;;;;;28.93;26.53;;;;;;;;;;5054691;28;20809;-81
2021/09/04 08:31:42;;;;;;;28.20;26.00;;;;;;;;;;5054684;28;20879;-81
2021/09/04 08:34:10;;;;;;;29.63;27.30;;;;;;;;;;5054116;28;20489;-81
2021/09/04 08:36:37;;;;;;;29.20;27.00;;;;;;;;;;5054441;28;20455;-80
2021/09/04 08:39:06;;;;;;;28.03;25.67;;;;;;;;;;5054466;28;20444;-82
2021/09/04 08:41:34;;;;;;;30.33;26.37;;;;;;;;;;5054954;28;20437;-86
2021/09/04 08:44:01;;;;;;;28.47;25.83;;;;;;;;;;5054618;28;20441;-80
2021/09/04 08:46:32;;;;;;;27.13;24.93;;;;;;;;;;5054396;28;20442;-80
2021/09/04 08:48:59;;;;;;;27.80;25.60;;;;;;;;;;5054381;28;20410;-80
2021/09/04 08:51:27;;;;;;;30.17;27.50;;;;;;;;;;5053582;28;20447;-80
2021/09/04 08:53:54;;;;;;;28.27;25.93;;;;;;;;;;5053791;28;20445;-80
2021/09/04 08:56:23;;;;;;;28.80;26.50;;;;;;;;;;5054103;28;20442;-80
2021/09/04 08:58:51;;;;;;;29.47;26.30;;;;;;;;;;5054107;28;20455;-80
2021/09/04 09:01:19;;;;;;;28.57;26.00;;;;;;;;;;5053869;28;20920;-80
2021/09/04 09:03:49;;;;;;;28.17;25.77;;;;;;;;;;5053742;28;20449;-80
2021/09/04 09:06:25;;;;;;;28.27;25.97;;;;;;;;;;5053908;28;20445;-80
2021/09/04 09:08:52;;;;;;;29.90;27.60;;;;;;;;;;5053370;28;20839;-88
2021/09/04 09:11:20;;;;;;;30.07;27.63;;;;;;;;;;5054637;28;20422;-89
2021/09/04 09:13:49;;;;;;;29.43;26.97;;;;;;;;;;5053827;28;20418;-91
2021/09/04 09:16:17;;;;;;;28.30;26.10;;;;;;;;;;5053820;28;20461;-88
2021/09/04 09:18:56;;;;;;;28.30;25.70;;;;;;;;;;5054707;28;20507;-89
2021/09/04 09:21:27;;;;;;;27.23;25.13;;;;;;;;;;5054719;28;20432;-87
2021/09/04 09:24:07;;;;;;;27.57;25.07;;;;;;;;;;5054340;28;20472;-86
2021/09/04 09:26:34;;;;;;;28.50;26.37;;;;;;;;;;5054091;28;20418;-90
2021/09/04 09:29:16;;;;;;;29.03;26.53;;;;;;;;;;5053806;28;20472;-80
2021/09/04 09:31:44;;;;;;;28.90;26.30;;;;;;;;;;5053557;28;20410;-79
2021/09/04 09:34:11;;;;;;;29.57;27.10;;;;;;;;;;5040177;28;20509;-80
2021/09/04 09:36:51;;;;;;;30.57;27.87;;;;;;;;;;5033330;28;20443;-80
2021/09/04 09:39:19;;;;;;;28.60;26.30;;;;;;;;;;5033439;28;20427;-80
2021/09/04 09:41:48;;;;;;;29.10;26.50;;;;;;;;;;5033756;28;20811;-79
2021/09/04 09:44:19;;;;;;;30.50;27.60;;;;;;;;;;5033514;28;20428;-80
2021/09/04 09:46:54;;;;;;;27.93;25.73;;;;;;;;;;5033282;28;20444;-80
2021/09/04 09:49:29;;;;;;;30.87;27.70;;;;;;;;;;5016420;28;20445;-80
2021/09/04 09:52:01;;;;;;;29.10;26.60;;;;;;;;;;5033249;28;20444;-79
2021/09/04 09:54:30;;;;;;;30.13;27.63;;;;;;;;;;5033465;28;21078;-80
2021/09/04 09:56:58;;;;;;;30.27;27.97;;;;;;;;;;5033052;28;20461;-80
2021/09/04 09:59:28;;;;;;;29.80;27.23;;;;;;;;;;5033651;28;20945;-80
2021/09/04 10:01:56;;;;;;;30.00;27.40;;;;;;;;;;5033368;28;20785;-80
2021/09/04 10:04:27;;;;;;;28.90;26.40;;;;;;;;;;5033541;28;20406;-80
2021/09/04 10:06:54;;;;;;;30.97;28.17;;;;;;;;;;5033164;28;20922;-80
2021/09/04 10:09:23;;;;;;;29.90;27.50;;;;;;;;;;5033160;28;20824;-80
2021/09/04 10:11:51;;;;;;;32.03;29.33;;;;;;;;;;5033409;28;20499;-80
2021/09/04 10:14:18;;;;;;;30.50;27.80;;;;;;;;;;5032852;28;20773;-80
2021/09/04 10:16:48;;;;;;;31.40;28.63;;;;;;;;;;5033348;28;20435;-79
2021/09/04 10:19:18;;;;;;;31.80;29.17;;;;;;;;;;5033208;28;20440;-79
2021/09/04 10:21:45;;;;;;;30.90;28.47;;;;;;;;;;5033217;28;20406;-80
2021/09/04 10:24:13;;;;;;;32.97;30.17;;;;;;;;;;5033416;28;20415;-79
2021/09/04 10:26:41;;;;;;;31.07;28.60;;;;;;;;;;5034178;28;20420;-79
2021/09/04 10:29:10;;;;;;;32.50;29.80;;;;;;;;;;5033755;28;20436;-80
2021/09/04 10:31:44;;;;;;;31.70;29.00;;;;;;;;;;5033332;28;20905;-80
2021/09/04 10:34:14;;;;;;;31.30;28.83;;;;;;;;;;5059347;28;20480;-80
2021/09/04 10:36:53;;;;;;;31.50;28.67;;;;;;;;;;5073306;28;20424;-80
2021/09/04 10:39:22;;;;;;;33.27;30.10;;;;;;;;;;5072951;28;20474;-80
2021/09/04 10:41:50;;;;;;;32.83;30.10;;;;;;;;;;5073698;28;20448;-80
2021/09/04 10:44:17;;;;;;;33.17;30.13;;;;;;;;;;5076155;28;20428;-80
2021/09/04 10:46:45;;;;;;;34.23;30.67;;;;;;;;;;5076378;28;20435;-80
2021/09/04 10:49:14;;;;;;;32.97;30.23;;;;;;;;;;5076555;28;20907;-80
2021/09/04 10:51:51;;;;;;;34.83;31.77;;;;;;;;;;5076549;28;20407;-80
2021/09/04 10:54:37;;;;;;;32.73;29.83;;;;;;;;;;5076210;28;20476;-80
2021/09/04 10:57:13;;;;;;;31.93;29.17;;;;;;;;;;5076140;28;20809;-79
2021/09/04 11:00:14;;;;;;;32.27;29.40;;;;;;;;;;5076442;28;20795;-79
2021/09/04 11:02:42;;;;;;;34.23;31.23;;;;;;;;;;4994548;28;20430;-80
2021/09/04 11:05:28;;;;;;;31.73;29.23;;;;;;;;;;4994741;28;20536;-79
2021/09/04 11:08:01;;;;;;;30.10;27.40;;;;;;;;;;4994933;28;20438;-80
2021/09/04 11:10:29;;;;;;;32.13;29.50;;;;;;;;;;4994610;28;20830;-80
2021/09/04 11:13:30;;;;;;;31.40;28.83;;;;;;;;;;4994362;28;20420;-80
2021/09/04 11:16:17;;;;;;;30.40;27.70;;;;;;;;;;4955759;29;20428;-79
2021/09/04 11:18:46;;;;;;;31.03;28.33;;;;;;;;;;4955705;29;20467;-79
2021/09/04 11:21:13;;;;;;;31.27;29.00;;;;;;;;;;4955884;29;20448;-79
2021/09/04 11:23:44;;;;;;;30.83;28.23;;;;;;;;;;4955784;29;20556;-79
2021/09/04 11:26:12;;;;;;;31.47;28.93;;;;;;;;;;4955650;29;20440;-79
2021/09/04 11:28:39;;;;;;;31.20;28.70;;;;;;;;;;4955853;29;20446;-78
2021/09/04 11:31:07;;;;;;;32.90;30.10;;;;;;;;;;4955637;29;20436;-79
2021/09/04 11:33:34;;;;;;;31.80;29.23;;;;;;;;;;4974106;28;21036;-79
2021/09/04 11:36:01;;;;;;;28.43;26.10;;;;;;;;;;4993790;28;20421;-78
2021/09/04 11:38:29;;;;;;;32.60;29.70;;;;;;;;;;4993957;28;20473;-79
2021/09/04 11:40:58;;;;;;;30.07;27.53;;;;;;;;;;4994156;28;20429;-79
2021/09/04 11:43:26;;;;;;;31.03;28.37;;;;;;;;;;4993754;28;20432;-79
2021/09/04 11:46:02;;;;;;;30.27;27.83;;;;;;;;;;5001631;28;20942;-80
2021/09/04 11:48:30;;;;;;;31.07;28.47;;;;;;;;;;5075159;28;20409;-79
2021/09/04 11:51:04;;;;;;;32.80;29.97;;;;;;;;;;5075432;28;20736;-78
2021/09/04 11:53:32;;;;;;;29.13;26.77;;;;;;;;;;5074737;28;20448;-79
2021/09/04 11:56:01;;;;;;;31.40;28.87;;;;;;;;;;5075289;28;20442;-79
2021/09/04 11:58:28;;;;;;;30.17;27.60;;;;;;;;;;5074826;28;20541;-79
2021/09/04 12:01:03;;;;;;;32.40;29.63;;;;;;;;;;5075246;28;20404;-79
2021/09/04 12:03:31;;;;;;;31.73;29.10;;;;;;;;;;5074764;28;20905;-80
2021/09/04 12:05:58;;;;;;;31.27;28.47;;;;;;;;;;5074811;28;20412;-79
2021/09/04 12:08:27;;;;;;;30.57;28.27;;;;;;;;;;5075021;28;20446;-79
2021/09/04 12:10:54;;;;;;;30.77;28.40;;;;;;;;;;5074974;28;20467;-79
2021/09/04 12:13:26;;;;;;;30.53;28.00;;;;;;;;;;5074479;28;20414;-79
2021/09/04 12:15:54;;;;;;;30.07;27.60;;;;;;;;;;5074912;28;20429;-79
2021/09/04 12:18:28;;;;;;;29.93;27.40;;;;;;;;;;5074769;28;20494;-78
2021/09/04 12:20:55;;;;;;;31.23;28.77;;;;;;;;;;5074618;28;20422;-79
2021/09/04 12:23:24;;;;;;;31.93;29.23;;;;;;;;;;5075495;28;20409;-86
2021/09/04 12:25:52;;;;;;;32.00;29.40;;;;;;;;;;5077287;28;20522;-86
2021/09/04 12:28:25;;;;;;;28.93;26.73;;;;;;;;;;5076049;28;20454;-87
2021/09/04 12:30:59;;;;;;;29.83;27.00;;;;;;;;;;5076400;28;20418;-87
2021/09/04 12:33:27;;;;;;;30.37;27.83;;;;;;;;;;5075638;28;20460;-86
2021/09/04 12:35:55;;;;;;;30.47;27.87;;;;;;;;;;5068878;28;20545;-85
2021/09/04 12:38:24;;;;;;;29.77;27.13;;;;;;;;;;5056084;28;20478;-85
2021/09/04 12:41:08;;;;;;;29.70;27.47;;;;;;;;;;5040960;28;20844;-79
2021/09/04 12:43:53;;;;;;;31.07;28.67;;;;;;;;;;5053851;28;20505;-79
2021/09/04 12:46:31;;;;;;;30.33;27.93;;;;;;;;;;5054874;28;20411;-85
2021/09/04 12:48:59;;;;;;;33.63;30.50;;;;;;;;;;5036893;28;20852;-84
2021/09/04 12:51:34;;;;;;;30.27;27.90;;;;;;;;;;5053973;28;20436;-78
2021/09/04 12:54:02;;;;;;;31.63;28.97;;;;;;;;;;5053934;28;20452;-78
2021/09/04 12:56:37;;;;;;;29.23;27.00;;;;;;;;;;5036240;28;20984;-83
2021/09/04 12:59:06;;;;;;;30.97;28.27;;;;;;;;;;5054023;28;20449;-86
2021/09/04 13:01:34;;;;;;;29.37;27.27;;;;;;;;;;5053962;28;20450;-76
2021/09/04 13:04:04;;;;;;;29.90;27.37;;;;;;;;;;5053804;28;20438;-78
2021/09/04 13:06:32;;;;;;;29.37;27.10;;;;;;;;;;5053851;28;20433;-78
2021/09/04 13:08:59;;;;;;;30.43;27.43;;;;;;;;;;5053704;28;20419;-77
2021/09/04 13:11:27;;;;;;;29.67;27.37;;;;;;;;;;5054047;28;20444;-85
2021/09/04 13:13:55;;;;;;;29.00;26.60;;;;;;;;;;5035937;28;20455;-78
2021/09/04 13:16:23;;;;;;;28.60;26.30;;;;;;;;;;5053809;28;20443;-78
2021/09/04 13:18:51;;;;;;;30.03;27.53;;;;;;;;;;5053627;28;20479;-78
2021/09/04 13:21:18;;;;;;;28.30;26.00;;;;;;;;;;5053633;28;20433;-85
2021/09/04 13:23:46;;;;;;;28.33;25.80;;;;;;;;;;5054117;28;20499;-85
2021/09/04 13:26:13;;;;;;;30.60;27.73;;;;;;;;;;5053979;28;20434;-85
2021/09/04 13:28:40;;;;;;;28.77;26.23;;;;;;;;;;5053788;28;20436;-85
2021/09/04 13:31:08;;;;;;;28.27;26.10;;;;;;;;;;5053520;28;20440;-78
2021/09/04 13:33:36;;;;;;;29.20;26.90;;;;;;;;;;5053288;28;20847;-78
2021/09/04 13:36:06;;;;;;;29.10;26.80;;;;;;;;;;5053333;28;20928;-84
2021/09/04 13:38:35;;;;;;;29.30;27.00;;;;;;;;;;5053523;28;20531;-84
2021/09/04 13:41:03;;;;;;;30.87;28.43;;;;;;;;;;5053624;28;20445;-80
2021/09/04 13:43:30;;;;;;;28.83;26.43;;;;;;;;;;5053286;28;20455;-81
2021/09/04 13:45:57;;;;;;;29.40;26.90;;;;;;;;;;5052841;28;20438;-80
2021/09/04 13:48:25;;;;;;;27.53;25.53;;;;;;;;;;5053506;28;20446;-80
2021/09/04 13:50:54;;;;;;;27.13;24.83;;;;;;;;;;5053572;28;20450;-80
2021/09/04 13:53:21;;;;;;;29.83;27.03;;;;;;;;;;5053010;28;20910;-80
2021/09/04 13:55:48;;;;;;;29.13;26.60;;;;;;;;;;5035650;28;20437;-80
2021/09/04 13:58:16;;;;;;;27.60;25.57;;;;;;;;;;5053356;28;20487;-80
2021/09/04 14:00:43;;;;;;;29.00;26.80;;;;;;;;;;5053372;28;20411;-81
2021/09/04 14:03:11;;;;;;;28.83;26.33;;;;;;;;;;5053068;28;20433;-81
2021/09/04 14:05:38;;;;;;;27.87;25.73;;;;;;;;;;5053331;28;20427;-80
2021/09/04 14:08:07;;;;;;;28.27;26.23;;;;;;;;;;5053001;28;20448;-80
2021/09/04 14:10:34;;;;;;;28.90;26.20;;;;;;;;;;5053148;28;20441;-81
2021/09/04 14:13:02;;;;;;;29.77;27.37;;;;;;;;;;5053035;28;20441;-81
2021/09/04 14:15:35;;;;;;;28.00;25.70;;;;;;;;;;5052925;28;20891;-80
2021/09/04 14:18:02;;;;;;;27.50;25.30;;;;;;;;;;5055639;28;20415;-81
2021/09/04 14:20:30;;;;;;;27.10;25.20;;;;;;;;;;5057142;28;20441;-81
2021/09/04 14:22:57;;;;;;;27.63;25.43;;;;;;;;;;5056931;28;20757;-81
2021/09/04 14:25:26;;;;;;;29.63;27.10;;;;;;;;;;5056689;28;20404;-80